• Join FlightAware (Why Join?)
  • Login
  • US Flag 
 
09:06AM EST


 

Airport Tracker/Info


-or-


 

Live Flight TrackerFlight Track Log ✈ SWA2353 ✈ 28-Apr-2013 ✈ KPHL - KMDW

Flight Track Log - Related Links

Times and Time Zones

All times are in EDT time to prevent confusion due to time zone crossing. See the SWA2353 flight status page for this flight to view local times or setup timezone preferences in your user account.

Time Position Orientation Groundspeed Altitude Reporting Facility
EDT Latitude Longitude Course Direction KTS MPH feet Rate Location/Type
06:31PM 39.8833 -75.2167 67° East 160 184 600  Level Philadelphia TRACON
06:32PM 39.9000 -75.1667 67° East 214 246 2,500 1,980 Climbing Philadelphia TRACON
06:33PM 39.9500 -75.1167 37° Northeast 280 322 4,700 3,000 Climbing Philadelphia TRACON
06:34PM 40.0167 -75.1667 330° Northwest 290 334 8,500 2,700 Climbing Philadelphia TRACON
06:35PM 40.0667 -75.2500 308° West 309 356 10,100 1,680 Climbing Philadelphia TRACON
06:36PM 40.1431 -75.4114 302° West 382 440 12,900 1,320 Climbing New York Center
06:37PM 40.1972 -75.5211 303° West 377 434 13,500 1,740 Climbing New York Center
06:38PM 40.2539 -75.6092 310° West 357 411 16,400 1,680 Climbing New York Center
06:39PM 40.3208 -75.7092 311° West 357 411 16,900 240 Climbing New York Center
06:40PM 40.3911 -75.8178 310° West 357 411 16,900 180 Level New York Center
06:41PM 40.4411 -75.9169 304° West 362 417 17,300 1,320 Climbing New York Center
06:42PM 40.4644 -76.0497 283° West 368 423 19,600 2,400 Climbing New York Center
06:43PM 40.4853 -76.1878 281° West 380 437 22,300 2,400 Climbing New York Center
06:44PM 40.5058 -76.3286 281° West 385 443 24,500 2,040 Climbing New York Center
06:45PM 40.5281 -76.4750 281° West 398 458 26,400 3,060 Climbing New York Center
06:46PM 40.5481 -76.6161 281° West 404 465 30,600 3,120 Climbing New York Center
06:47PM 40.5650 -76.7378 280° West 376 433 32,700 1,860 Climbing New York Center
06:48PM 40.5856 -76.8681 282° West 365 420 34,400 1,860 Climbing New York Center
06:49PM 40.6039 -76.9928 281° West 354 407 36,400 1,560 Climbing New York Center
06:50PM 40.6225 -77.1147 281° West 349 402 37,600 1,020 Climbing New York Center
06:51PM 40.6386 -77.2392 280° West 349 402 38,500 660 Climbing New York Center
06:52PM 40.6567 -77.3669 281° West 354 407 39,000 360 Climbing New York Center
06:53PM 40.6761 -77.5028 281° West 362 417 39,300 240 Climbing New York Center
06:56PM 40.7272 -77.8733 280° West 392 451 40,000 180 Climbing Cleveland Center
06:57PM 40.7450 -78.0150 279° West 403 464 40,000  Level Cleveland Center
06:58PM 40.7650 -78.1625 280° West 408 470 40,000  Level Cleveland Center
06:59PM 40.7844 -78.3042 280° West 408 470 40,000  Level Cleveland Center
07:00PM 40.8019 -78.4492 279° West 408 470 40,000  Level Cleveland Center
07:01PM 40.8189 -78.5883 279° West 408 470 40,000  Level Cleveland Center
07:02PM 40.8381 -78.7333 280° West 408 470 40,000  Level Cleveland Center
07:03PM 40.8567 -78.8592 281° West 401 461 40,000  Level Cleveland Center
07:04PM 40.8756 -78.9986 280° West 396 456 40,000  Level Cleveland Center
07:05PM 40.8919 -79.1411 279° West 396 456 40,000  Level Cleveland Center
07:06PM 40.9103 -79.2836 280° West 391 450 40,000  Level Cleveland Center
07:07PM 40.9264 -79.4261 279° West 391 450 40,000  Level Cleveland Center
07:08PM 40.9444 -79.5717 279° West 391 450 40,000  Level Cleveland Center
07:09PM 40.9625 -79.7169 279° West 396 456 40,000  Level Cleveland Center
07:10PM 40.9800 -79.8653 279° West 406 467 40,000  Level Cleveland Center
07:11PM 40.9956 -80.0164 278° West 406 467 40,000  Level Cleveland Center
07:12PM 41.0150 -80.1675 280° West 412 474 40,000  Level Cleveland Center
07:13PM 41.0319 -80.3161 279° West 412 474 40,000  Level Cleveland Center
07:14PM 41.0469 -80.4647 278° West 412 474 40,000  Level Cleveland Center
07:15PM 41.0614 -80.6133 277° West 412 474 40,000  Level Cleveland Center
07:16PM 41.0800 -80.7678 279° West 412 474 40,000  Level Cleveland Center
07:17PM 41.0964 -80.9164 278° West 412 474 40,000  Level Cleveland Center
07:18PM 41.1106 -81.0708 277° West 412 474 40,000  Level Cleveland Center
07:19PM 41.1264 -81.2172 278° West 417 480 40,000  Level Cleveland Center
07:20PM 41.1422 -81.3661 278° West 412 474 40,000  Level Cleveland Center
07:21PM 41.1600 -81.5125 279° West 406 467 40,000  Level Cleveland Center
07:22PM 41.1753 -81.6589 278° West 406 467 40,000  Level Cleveland Center
07:23PM 41.1883 -81.8081 277° West 406 467 40,000  Level Cleveland Center
07:24PM 41.2031 -81.9714 277° West 406 467 40,000  Level Cleveland Center
07:25PM 41.2161 -82.1069 277° West 406 467 40,000  Level Cleveland Center
07:26PM 41.2286 -82.2589 276° West 416 479 40,000  Level Cleveland Center
07:27PM 41.2428 -82.4114 277° West 416 479 40,000  Level Cleveland Center
07:28PM 41.2569 -82.5608 277° West 416 479 40,000  Level Cleveland Center
07:29PM 41.2708 -82.7131 277° West 416 479 40,000  Level Cleveland Center
07:30PM 41.2847 -82.8683 277° West 421 484 40,000  Level Cleveland Center
07:31PM 41.3000 -83.0375 277° West 426 490 40,000  Level Cleveland Center
07:32PM 41.3131 -83.1900 277° West 426 490 40,000 -960 Level Cleveland Center
07:33PM 41.3242 -83.3425 276° West 426 490 38,100 -2,040 Descending Cleveland Center
07:34PM 41.3372 -83.4897 277° West 420 483 36,000 -1,080 Descending Cleveland Center
07:35PM 41.3497 -83.6481 276° West 425 489 36,000  Level Cleveland Center
07:36PM 41.3642 -83.8064 277° West 425 489 36,000  Level Cleveland Center
07:37PM 41.3764 -83.9622 276° West 425 489 36,000 -180 Level Cleveland Center
07:38PM 41.3425 -84.1331 255° West 431 496 35,700 -600 Descending Chicago Center
07:39PM 41.3058 -84.2856 252° West 433 498 34,700 -1,020 Descending Chicago Center
07:40PM 41.2708 -84.4436 254° West 443 510 33,700 -1,500 Descending Chicago Center
07:41PM 41.2919 -84.6008 280° West 429 494 31,700 -1,860 Descending Chicago Center
07:42PM 41.3222 -84.7761 283° West 412 474 30,000 -840 Descending Chicago Center
07:43PM 41.3467 -84.9231 283° West 407 468 30,000  Level Chicago Center
07:44PM 41.3703 -85.0686 282° West 405 466 30,000 -1,020 Level Chicago Center
07:45PM 41.3956 -85.2192 283° West 411 473 28,000 -1,500 Descending Chicago Center
07:46PM 41.4194 -85.3689 282° West 411 473 27,000 -1,500 Descending Chicago Center
07:47PM 41.4428 -85.5175 282° West 405 466 25,000 -2,040 Descending Chicago Center
07:48PM 41.4664 -85.6603 282° West 393 452 22,800 -2,160 Descending Chicago Center
07:49PM 41.4878 -85.7956 282° West 375 432 20,600 -2,340 Descending Chicago Center
07:50PM 41.5122 -85.9533 282° West 361 415 18,000 -2,280 Descending Chicago Center
07:52PM 41.5256 -86.0794 278° West 346 398 16,000 -2,040 Descending Chicago Center
07:53PM 41.5242 -86.2072 269° West 344 396 13,900 -1,980 Descending Chicago Center
07:54PM 41.5236 -86.3314 270° West 337 388 12,000 -1,440 Descending Chicago Center
07:55PM 41.5225 -86.4519 269° West 328 377 11,000 -960 Descending Chicago Center
07:56PM 41.5206 -86.5694 269° West 318 366 10,000 -1,080 Descending Chicago Center
07:57PM 41.5203 -86.6922 270° West 278 320 8,800 -1,320 Descending Chicago Center
07:58PM 41.5192 -86.8008 269° West 278 320 7,300 -1,380 Descending Chicago Center
07:59PM 41.5181 -86.9006 269° West 272 313 6,000 -660 Descending Chicago Center
08:00PM 41.5189 -86.9983 271° West 267 307 6,000  Level Chicago Center
08:01PM 41.5172 -87.0953 269° West 265 305 6,000  Level Chicago Center
08:01PM 41.5167 -87.1500 269° West 265 305 6,000 -120 Level Chicago TRACON
08:02PM 41.5167 -87.2667 270° West 261 300 5,900 -780 Descending Chicago TRACON
08:03PM 41.5333 -87.3667 283° West 265 305 4,400 -1,320 Descending Chicago TRACON
08:04PM 41.5342 -87.4031 272° West 263 303 4,000 -300 Descending Chicago Center
08:05PM 41.5439 -87.4950 278° West 258 297 4,000  Level Chicago Center
08:06PM 41.5622 -87.5833 286° West 252 290 4,000 -420 Level Chicago Center
08:07PM 41.5864 -87.6903 287° West 252 290 3,200 -540 Descending Chicago Center
08:08PM 41.6069 -87.7786 287° West 253 291 2,900 -420 Descending Chicago Center
08:09PM 41.6194 -87.8542 283° West 230 265 2,400 -360 Descending Chicago Center
08:09PM 41.6333 -87.8667 326° Northwest 188 216 2,500 60 Climbing Chicago TRACON
08:10PM 41.6667 -87.8833 340° North 186 214 2,500  Level Chicago TRACON
08:11PM 41.6969 -87.8647 25° Northeast 191 220 2,500 -420 Level Chicago Center
08:12PM 41.7333 -87.8167 45° Northeast 147 169 1,700 -720 Descending Chicago TRACON
08:13PM 41.7667 -87.7833 37° Northeast 133 153 1,000 -720 Descending Chicago TRACON